Accueil
METAR-TAF:

METAR-TAF

Aéroports :

Shawbury, Angleterre

latitude: 52-48N, longitude: 002-40W, altitude: 76 m

Observation

Le bulletin a été fait il y a 40 minutes, à 05:50 UTC
Vent 3 kt de sud-ouest
Température 16°C
Humidité 94%
Pression 1019 hPa
Visibilité 10 km ou plus
Quelques nuages à une hauteur de 1200 ft
Nuages épars à une hauteur de 3400 ft
Nuages fragmentés à une hauteur de 5000 ft

METAR: EGOS 200550Z 22003KT 9999 FEW012 SCT034 BKN050 16/15 Q1019 BLU

Heure: 07:30 (06:30 UTC)

Prévision

Le bulletin a été fait il y a 49 minutes, à 05:41 UTC
Prévision valable du 20 à 06 UTC au 20 à 15 UTC
Vent 6 kt de sud-ouest
Visibilité 10 km ou plus
Nuages épars à une hauteur de 3500 ft
Probabilité 30% :
Temporairement
du 20 à 06 UTC au 20 à 15 UTC
Visibilité: 6000 m
Nuages épars à une hauteur de 1800 ft
faible bruine

TAF: EGOS 200541Z 2006/2015 22006KT 9999 SCT035 PROB30 TEMPO 2006/2015 6000 -DZ SCT018

Observations et prévisions météorologiques de plus de 4000 aéroports (messages METAR et TAF).

Les stations disponibles sont représentées par des disques jaunes et rouges sur la carte.

Passer la souris dessus pour voir le nom de la station.

Cliquer dessus pour voir les observations et prévisions météorologiques.

Pour changer de carte: cliquez sur les boutons verts avec une croix noire pour zoomer, sur le bouton vert avec un tiret pour effectuer un zoom arrière, ou sur les flèches vertes pour les cartes adjacentes.


METAR-TAF: